Time,TemperatureF,DewpointF,PressureIn,WindDirection,WindDirectionDegrees,WindSpeedMPH,WindSpeedGustMPH,Humidity,HourlyPrecipIn,Conditions,Clouds,dailyrainin,SolarRadiationWatts/m^2,SoftwareType,DateUTC
2013-07-12 00:11:00,66.0,56.0,-100.00,North,354,6.0,25.0,69,0.01,,,0.01,0.000000,,2013-07-12 06:11:00,
2013-07-12 00:22:00,66.0,56.0,-100.00,North,354,6.0,25.0,69,0.01,,,0.01,0.000000,,2013-07-12 06:22:00,
2013-07-12 00:33:00,66.0,56.0,-100.00,North,354,6.0,25.0,69,0.01,,,0.01,0.000000,,2013-07-12 06:33:00,
2013-07-12 00:42:00,66.0,56.0,-100.00,North,354,6.0,25.0,69,0.01,,,0.01,0.000000,,2013-07-12 06:42:00,
2013-07-12 00:51:00,66.0,56.0,-100.00,SSW,200,4.0,12.0,69,0.00,,,0.01,0.000000,,2013-07-12 06:51:00,
2013-07-12 01:12:00,66.0,56.0,-100.00,SSW,200,4.0,12.0,69,0.00,,,0.01,0.000000,,2013-07-12 07:12:00,
2013-07-12 01:22:00,66.0,56.0,-100.00,SSW,200,4.0,12.0,69,0.00,,,0.01,0.000000,,2013-07-12 07:22:00,
2013-07-12 01:32:00,66.0,56.0,-100.00,SSW,200,4.0,12.0,69,0.00,,,0.01,0.000000,,2013-07-12 07:32:00,
2013-07-12 01:43:00,66.0,56.0,-100.00,SSW,200,4.0,12.0,69,0.00,,,0.01,0.000000,,2013-07-12 07:43:00,
2013-07-12 01:51:00,64.0,57.0,-100.00,NNW,336,3.0,8.0,77,0.00,,,0.01,0.000000,,2013-07-12 07:51:00,
2013-07-12 02:21:00,64.0,57.0,-100.00,NNW,336,3.0,8.0,77,0.00,,,0.01,0.000000,,2013-07-12 08:21:00,
2013-07-12 02:32:00,64.0,57.0,-100.00,NNW,336,3.0,8.0,77,0.00,,,0.01,0.000000,,2013-07-12 08:32:00,
2013-07-12 02:42:00,64.0,57.0,-100.00,NNW,336,3.0,8.0,77,0.00,,,0.01,0.000000,,2013-07-12 08:42:00,
2013-07-12 02:51:00,64.0,56.0,-100.00,SW,228,2.0,6.0,76,0.00,,,0.01,0.000000,,2013-07-12 08:51:00,
2013-07-12 03:12:00,64.0,56.0,-100.00,SW,228,2.0,6.0,76,0.00,,,0.01,0.000000,,2013-07-12 09:12:00,
2013-07-12 03:22:00,64.0,56.0,-100.00,SW,228,2.0,6.0,76,0.00,,,0.01,0.000000,,2013-07-12 09:22:00,
2013-07-12 03:32:00,64.0,56.0,-100.00,SW,228,2.0,6.0,76,0.00,,,0.01,0.000000,,2013-07-12 09:32:00,
2013-07-12 03:42:00,64.0,56.0,-100.00,SW,228,2.0,6.0,76,0.00,,,0.01,0.000000,,2013-07-12 09:42:00,
2013-07-12 03:51:00,62.0,56.0,-100.00,WSW,253,5.0,9.0,81,0.00,,,0.01,0.000000,,2013-07-12 09:51:00,
2013-07-12 04:22:00,62.0,56.0,-100.00,WSW,253,5.0,9.0,81,0.00,,,0.01,0.000000,,2013-07-12 10:22:00,
2013-07-12 04:33:00,62.0,56.0,-100.00,WSW,253,5.0,9.0,81,0.00,,,0.01,0.000000,,2013-07-12 10:33:00,
2013-07-12 04:42:00,62.0,56.0,-100.00,WSW,253,5.0,9.0,81,0.00,,,0.01,0.000000,,2013-07-12 10:42:00,
2013-07-12 04:51:00,64.0,56.0,-100.00,South,179,2.0,4.0,74,0.00,,,0.01,0.000000,,2013-07-12 10:51:00,
2013-07-12 05:11:00,64.0,56.0,-100.00,South,179,2.0,4.0,74,0.00,,,0.01,0.000000,,2013-07-12 11:11:00,
2013-07-12 05:22:00,64.0,56.0,-100.00,South,179,2.0,4.0,74,0.00,,,0.01,0.000000,,2013-07-12 11:22:00,
2013-07-12 05:32:00,64.0,56.0,-100.00,South,179,2.0,4.0,74,0.00,,,0.01,0.000000,,2013-07-12 11:32:00,
2013-07-12 05:43:00,64.0,56.0,-100.00,South,179,2.0,4.0,74,0.00,,,0.01,0.000000,,2013-07-12 11:43:00,
2013-07-12 05:51:00,62.0,54.0,-100.00,SSE,152,1.0,3.0,75,0.00,,,0.01,0.000000,,2013-07-12 11:51:00,
2013-07-12 06:11:00,62.0,54.0,-100.00,SSE,152,1.0,3.0,75,0.00,,,0.01,0.000000,,2013-07-12 12:11:00,
2013-07-12 06:22:00,62.0,54.0,-100.00,SSE,152,1.0,3.0,75,0.00,,,0.01,0.000000,,2013-07-12 12:22:00,
2013-07-12 06:32:00,62.0,54.0,-100.00,SSE,152,1.0,3.0,75,0.00,,,0.01,0.000000,,2013-07-12 12:32:00,
2013-07-12 06:43:00,62.0,54.0,-100.00,SSE,152,1.0,3.0,75,0.00,,,0.01,0.000000,,2013-07-12 12:43:00,
2013-07-12 06:51:00,65.0,54.0,-100.00,ENE,71,1.0,3.0,68,0.00,,,0.01,47.000000,,2013-07-12 12:51:00,
2013-07-12 07:22:00,65.0,54.0,-100.00,ENE,71,1.0,3.0,68,0.00,,,0.01,47.000000,,2013-07-12 13:22:00,
2013-07-12 07:32:00,65.0,54.0,-100.00,ENE,71,1.0,3.0,68,0.00,,,0.01,47.000000,,2013-07-12 13:32:00,
2013-07-12 07:43:00,65.0,54.0,-100.00,ENE,71,1.0,3.0,68,0.00,,,0.01,47.000000,,2013-07-12 13:43:00,
2013-07-12 07:51:00,66.0,57.0,-100.00,NNW,334,4.0,6.0,73,0.00,,,0.01,235.000000,,2013-07-12 13:51:00,
2013-07-12 08:22:00,66.0,57.0,-100.00,NNW,334,4.0,6.0,73,0.00,,,0.01,235.000000,,2013-07-12 14:22:00,
2013-07-12 08:32:00,66.0,57.0,-100.00,NNW,334,4.0,6.0,73,0.00,,,0.01,235.000000,,2013-07-12 14:32:00,
2013-07-12 08:43:00,66.0,57.0,-100.00,NNW,334,4.0,6.0,73,0.00,,,0.01,235.000000,,2013-07-12 14:43:00,
2013-07-12 08:51:00,68.0,55.0,-100.00,NNW,335,3.0,6.0,63,0.00,,,0.01,374.000000,,2013-07-12 14:51:00,
2013-07-12 09:22:00,68.0,55.0,-100.00,NNW,335,3.0,6.0,63,0.00,,,0.01,374.000000,,2013-07-12 15:22:00,
2013-07-12 09:33:00,68.0,55.0,-100.00,NNW,335,3.0,6.0,63,0.00,,,0.01,374.000000,,2013-07-12 15:33:00,
2013-07-12 09:43:00,68.0,55.0,-100.00,NNW,335,3.0,6.0,63,0.00,,,0.01,374.000000,,2013-07-12 15:43:00,
2013-07-12 09:51:00,73.0,55.0,-100.00,NW,321,5.0,10.0,54,0.00,,,0.01,652.000000,,2013-07-12 15:51:00,
2013-07-12 10:22:00,73.0,55.0,-100.00,NW,321,5.0,10.0,54,0.00,,,0.01,652.000000,,2013-07-12 16:22:00,
2013-07-12 10:32:00,73.0,55.0,-100.00,NW,321,5.0,10.0,54,0.00,,,0.01,652.000000,,2013-07-12 16:32:00,
2013-07-12 10:43:00,73.0,55.0,-100.00,NW,321,5.0,10.0,54,0.00,,,0.01,652.000000,,2013-07-12 16:43:00,
2013-07-12 10:51:00,76.0,51.0,-100.00,NNW,345,3.0,10.0,42,0.00,,,0.01,643.000000,,2013-07-12 16:51:00,
2013-07-12 11:14:00,76.0,51.0,-100.00,NNW,345,3.0,10.0,42,0.00,,,0.01,643.000000,,2013-07-12 17:14:00,
2013-07-12 11:23:00,76.0,51.0,-100.00,NNW,345,3.0,10.0,42,0.00,,,0.01,643.000000,,2013-07-12 17:23:00,
2013-07-12 11:44:00,76.0,51.0,-100.00,NNW,345,3.0,10.0,42,0.00,,,0.01,643.000000,,2013-07-12 17:44:00,
2013-07-12 11:51:00,81.0,52.0,-100.00,WNW,285,11.0,17.0,36,0.00,,,0.01,1060.000000,,2013-07-12 17:51:00,
2013-07-12 12:14:00,81.0,52.0,-100.00,WNW,285,11.0,17.0,36,0.00,,,0.01,1060.000000,,2013-07-12 18:14:00,
2013-07-12 12:26:00,81.0,52.0,-100.00,WNW,285,11.0,17.0,36,0.00,,,0.01,1060.000000,,2013-07-12 18:26:00,
2013-07-12 12:34:00,81.0,52.0,-100.00,WNW,285,11.0,17.0,36,0.00,,,0.01,1060.000000,,2013-07-12 18:34:00,
2013-07-12 12:51:00,83.0,51.0,-100.00,WNW,288,9.0,19.0,33,0.00,,,0.01,1041.000000,,2013-07-12 18:51:00,
2013-07-12 13:15:00,83.0,51.0,-100.00,WNW,288,9.0,19.0,33,0.00,,,0.01,1041.000000,,2013-07-12 19:15:00,
2013-07-12 13:23:00,83.0,51.0,-100.00,WNW,288,9.0,19.0,33,0.00,,,0.01,1041.000000,,2013-07-12 19:23:00,
2013-07-12 13:33:00,83.0,51.0,-100.00,WNW,288,9.0,19.0,33,0.00,,,0.01,1041.000000,,2013-07-12 19:33:00,
2013-07-12 13:45:00,83.0,51.0,-100.00,WNW,288,9.0,19.0,33,0.00,,,0.01,1041.000000,,2013-07-12 19:45:00,
2013-07-12 13:51:00,84.0,51.0,-100.00,WNW,288,11.0,21.0,32,0.00,,,0.01,712.000000,,2013-07-12 19:51:00,
2013-07-12 14:33:00,84.0,51.0,-100.00,WNW,288,11.0,21.0,32,0.00,,,0.01,712.000000,,2013-07-12 20:33:00,
2013-07-12 14:44:00,84.0,51.0,-100.00,WNW,288,11.0,21.0,32,0.00,,,0.01,712.000000,,2013-07-12 20:44:00,
2013-07-12 14:51:00,87.0,49.0,-100.00,WNW,290,16.0,26.0,27,0.00,,,0.01,611.000000,,2013-07-12 20:51:00,
2013-07-12 15:14:00,87.0,49.0,-100.00,WNW,290,16.0,26.0,27,0.00,,,0.01,611.000000,,2013-07-12 21:14:00,
2013-07-12 15:25:00,87.0,49.0,-100.00,WNW,290,16.0,26.0,27,0.00,,,0.01,611.000000,,2013-07-12 21:25:00,
2013-07-12 15:34:00,87.0,49.0,-100.00,WNW,290,16.0,26.0,27,0.00,,,0.01,611.000000,,2013-07-12 21:34:00,
2013-07-12 15:51:00,83.0,49.0,-100.00,WSW,253,22.0,30.0,31,0.00,,,0.01,699.000000,,2013-07-12 21:51:00,
2013-07-12 16:16:00,83.0,49.0,-100.00,WSW,253,22.0,30.0,31,0.00,,,0.01,699.000000,,2013-07-12 22:16:00,
2013-07-12 16:23:00,83.0,49.0,-100.00,WSW,253,22.0,30.0,31,0.00,,,0.01,699.000000,,2013-07-12 22:23:00,
2013-07-12 16:33:00,83.0,49.0,-100.00,WSW,253,22.0,30.0,31,0.00,,,0.01,699.000000,,2013-07-12 22:33:00,
2013-07-12 16:44:00,83.0,49.0,-100.00,WSW,253,22.0,30.0,31,0.00,,,0.01,699.000000,,2013-07-12 22:44:00,
2013-07-12 16:51:00,81.0,55.0,-100.00,ESE,114,8.0,26.0,41,0.00,,,-99.99,301.000000,,2013-07-12 22:51:00,
2013-07-12 17:13:00,81.0,55.0,-100.00,ESE,114,8.0,26.0,41,0.00,,,-99.99,301.000000,,2013-07-12 23:13:00,
2013-07-12 17:43:00,81.0,55.0,-100.00,ESE,114,8.0,26.0,41,0.00,,,-99.99,301.000000,,2013-07-12 23:43:00,
2013-07-12 17:51:00,80.0,52.0,-100.00,SE,143,8.0,20.0,38,0.00,,,0.01,466.000000,,2013-07-12 23:51:00,
2013-07-12 18:25:00,80.0,52.0,-100.00,SE,143,8.0,20.0,38,0.00,,,0.01,466.000000,,2013-07-13 00:25:00,
2013-07-12 18:33:00,80.0,52.0,-100.00,SE,143,8.0,20.0,38,0.00,,,0.01,466.000000,,2013-07-13 00:33:00,
2013-07-12 18:45:00,80.0,52.0,-100.00,SE,143,8.0,20.0,38,0.00,,,0.01,466.000000,,2013-07-13 00:45:00,
2013-07-12 18:51:00,71.0,56.0,-100.00,SSE,166,15.0,31.0,59,0.08,,,0.09,539.000000,,2013-07-13 00:51:00,
2013-07-12 19:12:00,71.0,56.0,-100.00,SSE,166,15.0,31.0,59,0.08,,,0.09,539.000000,,2013-07-13 01:12:00,
2013-07-12 19:24:00,71.0,56.0,-100.00,SSE,166,15.0,31.0,59,0.08,,,0.09,539.000000,,2013-07-13 01:24:00,
2013-07-12 19:46:00,71.0,56.0,-100.00,SSE,166,15.0,31.0,59,0.08,,,0.09,539.000000,,2013-07-13 01:46:00,
2013-07-12 19:51:00,69.0,57.0,-100.00,East,82,5.0,20.0,66,0.00,,,-99.99,206.000000,,2013-07-13 01:51:00,
2013-07-12 20:14:00,69.0,57.0,-100.00,East,82,5.0,20.0,66,0.00,,,-99.99,206.000000,,2013-07-13 02:14:00,
2013-07-12 20:23:00,69.0,57.0,-100.00,East,82,5.0,20.0,66,0.00,,,-99.99,206.000000,,2013-07-13 02:23:00,
2013-07-12 20:46:00,69.0,57.0,-100.00,East,82,5.0,20.0,66,0.00,,,-99.99,206.000000,,2013-07-13 02:46:00,
2013-07-12 20:51:00,68.0,55.0,-100.00,ENE,65,8.0,14.0,63,0.00,,,0.09,21.000000,,2013-07-13 02:51:00,
2013-07-12 21:12:00,68.0,55.0,-100.00,ENE,65,8.0,14.0,63,0.00,,,0.09,21.000000,,2013-07-13 03:12:00,
2013-07-12 21:26:00,68.0,55.0,-100.00,ENE,65,8.0,14.0,63,0.00,,,0.09,21.000000,,2013-07-13 03:26:00,
2013-07-12 21:36:00,68.0,55.0,-100.00,ENE,65,8.0,14.0,63,0.00,,,0.09,21.000000,,2013-07-13 03:36:00,
2013-07-12 21:44:00,68.0,55.0,-100.00,ENE,65,8.0,14.0,63,0.00,,,0.09,21.000000,,2013-07-13 03:44:00,
2013-07-12 21:51:00,68.0,54.0,-100.00,East,95,5.0,15.0,60,0.00,,,0.09,0.000000,,2013-07-13 03:51:00,
2013-07-12 22:22:00,68.0,54.0,-100.00,East,95,5.0,15.0,60,0.00,,,0.09,0.000000,,2013-07-13 04:22:00,
2013-07-12 22:32:00,68.0,54.0,-100.00,East,95,5.0,15.0,60,0.00,,,0.09,0.000000,,2013-07-13 04:32:00,
2013-07-12 22:43:00,68.0,54.0,-100.00,East,95,5.0,15.0,60,0.00,,,0.09,0.000000,,2013-07-13 04:43:00,
2013-07-12 22:51:00,68.0,54.0,-100.00,East,83,5.0,12.0,61,0.00,,,0.09,0.000000,,2013-07-13 04:51:00,
2013-07-12 23:22:00,68.0,54.0,-100.00,East,83,5.0,12.0,61,0.00,,,0.09,0.000000,,2013-07-13 05:22:00,
2013-07-12 23:32:00,68.0,54.0,-100.00,East,83,5.0,12.0,61,0.00,,,0.09,0.000000,,2013-07-13 05:32:00,
2013-07-12 23:42:00,68.0,54.0,-100.00,East,83,5.0,12.0,61,0.00,,,0.09,0.000000,,2013-07-13 05:42:00,
2013-07-12 23:51:00,66.0,55.0,-100.00,WNW,303,6.0,9.0,67,0.00,,,0.08,0.000000,,2013-07-13 05:51:00,